Shinkomaru No.8 — JK5142 — position and weather

sailwx.info

Track history (hours):
 
Tides and Currents Weather Stations Pressure Air Temp Water Temp Dewpoint Dewpoint Depression Visibility Wind Speed Wind Dir Waves Ship Positions

Shinkomaru No.8

Last reported at 2016-Apr-23 11:28 UTC. Time now 2016-May-01 06:10 UTC.
Position N 35°02' E 140°11'.

Length 61 m; draft 4.5 m.

Type: Tanker. MMSI: 431400035.

Date/timePositionNaut miles runAvg speedWind from/ knotsBaromVisibWave heightAir tempDewpointWater temp
2016-Apr-23 11:28N 35°02' E 140°11'20 0.9
2016-Apr-22 14:33N 35°14' E 140°29'1812.9
2016-Apr-22 13:09N 35°02' E 140°13'712.2
2016-Apr-22 12:33N 34°58' E 140°05'18 7.6
2016-Apr-22 10:10N 35°03' E 139°44'812.6
2016-Apr-22 09:33N 35°11' E 139°46'1212.1
2016-Apr-22 08:34N 35°23' E 139°42'1212.1
2016-Apr-22 07:33N 35°31' E 139°53'1110.8
2016-Apr-22 06:33N 35°33' E 140°06'0 0.0
2016-Apr-22 05:30N 35°33' E 140°06'0 0.1
2016-Apr-22 04:33N 35°33' E 140°06'1010.1
2016-Apr-22 03:33N 35°30' E 139°54'8 8.0
2016-Apr-22 02:31N 35°22' E 139°53'0 0.0
2016-Apr-22 01:28N 35°22' E 139°53'0 0.0
2016-Apr-22 00:28N 35°22' E 139°53'2 1.9
2016-Apr-21 23:33N 35°23' E 139°51'1 1.0
2016-Apr-21 22:31N 35°23' E 139°50'0 0.0
2016-Apr-21 21:31N 35°23' E 139°50'0 0.0
2016-Apr-21 20:33N 35°23' E 139°50'0 0.0
2016-Apr-21 19:33N 35°23' E 139°50'0 0.0
2016-Apr-21 18:32N 35°23' E 139°50'0 0.0
2016-Apr-21 17:33N 35°23' E 139°50'0 0.0
2016-Apr-21 16:32N 35°23' E 139°50'0 0.0
2016-Apr-21 15:33N 35°23' E 139°50'0 0.0
2016-Apr-21 14:33N 35°23' E 139°50'0 0.1
2016-Apr-21 13:33N 35°23' E 139°50'0 0.0
2016-Apr-21 12:34N 35°24' E 139°50'0 0.0
2016-Apr-21 11:28N 35°23' E 139°50'0 0.0
2016-Apr-21 10:30N 35°24' E 139°50'7 7.6
2016-Apr-21 09:34N 35°18' E 139°45'24410.2
2016-Apr-20 09:33N 34°09' E 134°60'1311.6
2016-Apr-20 08:27N 34°22' E 134°59'1111.8
2016-Apr-20 07:32N 34°32' E 135°02'10 9.9
2016-Apr-20 06:28N 34°38' E 134°52'  
2016-Apr-14 19:31N 34°37' E 135°02'1010.8
2016-Apr-14 18:33N 34°26' E 135°03'1412.3
2016-Apr-14 17:23N 34°12' E 134°60'248 9.5
2016-Apr-13 15:12N 34°53' E 139°57'1210.5
2016-Apr-13 14:04N 35°00' E 140°09'23 8.9
2016-Apr-13 11:31N 35°15' E 140°30'  
Track history (hours):
 
Tides and Currents Weather Stations Pressure Air Temp Water Temp Dewpoint Dewpoint Depression Visibility Wind Speed Wind Dir Waves Ship Positions

Shinkomaru No.8

Last reported at 2016-Apr-23 11:28 UTC. Time now 2016-May-01 06:10 UTC.
Position N 35°02' E 140°11'.

Length 61 m; draft 4.5 m.

Type: Tanker. MMSI: 431400035.

Date/timePositionNaut miles runAvg speedWind from/ knotsBaromVisibWave heightAir tempDewpointWater temp
2016-Apr-23 11:28N 35°02' E 140°11'20 0.9
2016-Apr-22 14:33N 35°14' E 140°29'1812.9
2016-Apr-22 13:09N 35°02' E 140°13'712.2
2016-Apr-22 12:33N 34°58' E 140°05'18 7.6
2016-Apr-22 10:10N 35°03' E 139°44'812.6
2016-Apr-22 09:33N 35°11' E 139°46'1212.1
2016-Apr-22 08:34N 35°23' E 139°42'1212.1
2016-Apr-22 07:33N 35°31' E 139°53'1110.8
2016-Apr-22 06:33N 35°33' E 140°06'0 0.0
2016-Apr-22 05:30N 35°33' E 140°06'0 0.1
2016-Apr-22 04:33N 35°33' E 140°06'1010.1
2016-Apr-22 03:33N 35°30' E 139°54'8 8.0
2016-Apr-22 02:31N 35°22' E 139°53'0 0.0
2016-Apr-22 01:28N 35°22' E 139°53'0 0.0
2016-Apr-22 00:28N 35°22' E 139°53'2 1.9
2016-Apr-21 23:33N 35°23' E 139°51'1 1.0
2016-Apr-21 22:31N 35°23' E 139°50'0 0.0
2016-Apr-21 21:31N 35°23' E 139°50'0 0.0
2016-Apr-21 20:33N 35°23' E 139°50'0 0.0
2016-Apr-21 19:33N 35°23' E 139°50'0 0.0
2016-Apr-21 18:32N 35°23' E 139°50'0 0.0
2016-Apr-21 17:33N 35°23' E 139°50'0 0.0
2016-Apr-21 16:32N 35°23' E 139°50'0 0.0
2016-Apr-21 15:33N 35°23' E 139°50'0 0.0
2016-Apr-21 14:33N 35°23' E 139°50'0 0.1
2016-Apr-21 13:33N 35°23' E 139°50'0 0.0
2016-Apr-21 12:34N 35°24' E 139°50'0 0.0
2016-Apr-21 11:28N 35°23' E 139°50'0 0.0
2016-Apr-21 10:30N 35°24' E 139°50'7 7.6
2016-Apr-21 09:34N 35°18' E 139°45'24410.2
2016-Apr-20 09:33N 34°09' E 134°60'1311.6
2016-Apr-20 08:27N 34°22' E 134°59'1111.8
2016-Apr-20 07:32N 34°32' E 135°02'10 9.9
2016-Apr-20 06:28N 34°38' E 134°52'  
2016-Apr-14 19:31N 34°37' E 135°02'1010.8
2016-Apr-14 18:33N 34°26' E 135°03'1412.3
2016-Apr-14 17:23N 34°12' E 134°60'248 9.5
2016-Apr-13 15:12N 34°53' E 139°57'1210.5
2016-Apr-13 14:04N 35°00' E 140°09'23 8.9
2016-Apr-13 11:31N 35°15' E 140°30'  

Dump ship's entire track history